Deming Municipal Airport
KDMN : rendu visible

Aérodrome :











RETROUVEZ-NOUS SUR...

 
LOGIN :

S'inscrire | Disclaimer

   EN    FR    IT 

 









Légende :    VFR   VFR Marginal   IFR   IFR Intensif   IFR Très Intensif
Visi : 
Plafond : 
>= 8 km
>= 3000ft
5 à 8 km
1000 à 3000 ft
1500m à 5 km
500 à 1000 ft
800 à 1500m
200 à 500 ft
< 800m
< 200 ft
Symboles :   Orages  Brouillard  Fortes neiges  Fortes précipitations  Vent > 20 kt






- Altitude de l'aérodrome : 4314 ft


KDMN - Deming Municipal

DERNIER METAR :
  • 271253Z AUTO 19005KT 10SM CLR 14/M04 A3003 RMK AO2 SLP099 T01391039

METARs EXPIRÉS :
  • 271153Z AUTO 21007KT 10SM CLR 13/M04 A3000 RMK AO2 SLP090 T01281039 10206 20122 53001
  • 271053Z AUTO 22006KT 10SM CLR 14/M04 A2999 RMK AO2 SLP084 T01441039

TAF KDMN
Valide du 27 à 12h jusqu'au 28 à 12h UTC


271133Z 2712/2812 25006KT P6SM SKC
FM271700 30010KT P6SM FEW130
FM272200 32012KT P6SM SCT100 SCT250
FM280400 03013KT P6SM FEW120 FEW250
FIR KZAB / Amérique du Nord



MET'MAP, la Météo Aéronautique d'un coup d'oeil ! - Copyright ORBIFLY Décembre 2007 - Disclaimer

ORBIFLY MET'MAP TEAM :

Programmation & Développement : Alexandra Zaïnal
Sur une idée originale de : Baudouin d'Aumeries
Assistance à la programmation : Marc-Olivier Méhu
Soutien technique & logistique : Manuel Goepfert

Contact : metmap@orbifly.com




SOURCES & CREDITS :

   NOAA       Earth
Advisory